Latest METARs, TAFs and NOTAMs for SBCF


---------------------------------------------------------------------------
	(OBSERVATIONS)
SBCF 271000Z 13004KT 9999 FEW030 SCT080 12/10 Q1025=
SBCF 270900Z 08004KT CAVOK 12/09 Q1024=
SBCF 270800Z 17002KT CAVOK 13/11 Q1025=
---------------------------------------------------------------------------
	(TERMINAL AREA FORECAST)
SBCF 271000Z 2712/2812 08012KT 9999 BKN030 TX21/2718Z TN12/2808Z
    BECMG 2718/2720 08009KT CAVOK
    BECMG 2723/2801 12007KT
    BECMG 2809/2811 8000 BKN030
    RMK PEP=
---------------------------------------------------------------------------
	(NOTAMS)


SBCF J0021/17 IAP ILS X OR LOC X RWY 16 WITHDRAWN REF: AIP AD
    2.24. 12 JAN 12:20 2017 UNTIL PERM. CREATED: 12 JAN 12:21
    2017

SBCF J0235/17 BHZ VOR 117.70MHZ SECT BTN RDL 202 AND 212 U/S
    REF: AIP AD 2.24 (SID UGRUL 1A RWY 34 E SID UGRUL 1B RWY
    16. 05 MAY 16:05 2017 UNTIL PERM. CREATED: 05 MAY 16:11 2017

SBCF J0236/17 BHZ VOR 117.70MHZ SECT BTN RDL 072 AND 082 U/S
    REF: AIP AD 2.24 (SID SINEK 1A RWY 16/34. 05 MAY 16:07 2017
    UNTIL PERM. CREATED: 05 MAY 16:13 2017

SBCF J0256/17 APRON 1,2 AND 3 GENERAL AVIATION ACFT COMPULSORY
    USE OF PUSHBACK OPERATION BY OWN MEANS TO EXIT OF THE PRKG
    PSN REF: AIP AD 2. 22 MAY 00:00 2017 UNTIL PERM. CREATED:
    16 MAY 01:52 2017

SBCF J0299/16 IF NDB 215KHZ WITHDRAWN REF: AIP AD 2.24 AIP ENR
    4.1, ENR 6.1 (ENRC L2/H2 CNS123W SEQUENCE CHECK FOR SBRJYNYX
    J -- EXPECTED J0300/16 -- RECEIVED J0299/16 CNN038W DUPLICATE
    NOTAM TRANSACTION ROLLED BACK, RETCODE = 14. 20 MAY 00:00
    2016 UNTIL PERM. CREATED: 12 MAY 19:39 2016

SBCF J0309/16 IC NDB 245KHZ WITHDRAWN REF: AIP ENR 4.1, AIP ENR
    6.1 AIP ENR 6 ENRC L2/H2 AIP AD 2.24. 20 MAY 00:00 2016 UNTIL
    PERM. CREATED: 13 MAY 13:34 2016

SBCF J0319/17 TWY ALFA 1 AND ALFA 2 CORRECT DESIGNATOR TO ALFA
    REF: AIP AD 2 AIP MAP ADC. 08 JUN 19:42 2017 UNTIL PERM.
    CREATED: 08 JUN 19:44 2017

SBCF J0323/17 FLOW CTL PROC ACT ACFT TKOF SBCF DEST SBRF, SBSV,
    SBGO SBKP, SBSP AND SBGR SHALL USE THE FLW PREFERRED RTE:
    1-SBRF: KOKSU UZ14 AVILA UZ59 ZIPAR 2-SBSV: KOKSU UZ16 POSMU
    UZ36 MUMAS 3-SBGO: SELDO UZ8 CORVO UZ46 4-SBKP: MOTMA UZ30
    ENTIT 5-SBSP: MOTMA UZ30 ENTIT 6-SBGR: MAVBO UZ21 MOXEP.
    22 JUN 00:00 2017 UNTIL 16 AUG 23:59 2017. CREATED: 10 JUN
    16:42 2017

SBCF J0337/17 PDC WITHDRAWN. 20 JUN 15:37 2017 UNTIL PERM. CREATED:
    20 JUN 15:39 2017

SBCF J0684/15 CPDLC D-CL (DATA LINK CLEARANCE) HR SER H24 INSTL
    REF: AIP AD 2. 28 AUG 00:00 2015 UNTIL PERM. CREATED: 17
    AUG 19:09 2015

SBCF J0691/15 CPDLC (DATA LINK ATIS) HR SER H24 INSTL REF: AIP
    AD 2.18 AD 2.24 SID, IAC, STAR, PDC AND ADC. 28 AUG 00:00
    2015 UNTIL PERM. CREATED: 19 AUG 17:44 2015

SBCF J0894/16 SID RNAV GATOX 1A RWY 34 CHANGED IC NDB 245KHZ
    TO WAYPOINT CF012 REF:AIP AD 2.24. 13 DEC 17:41 2016 UNTIL
    PERM. CREATED: 13 DEC 19:00 2016

SBCF J1066/15 SID RNAV AKRAR 1A RWY 34 CHANGED IDENT WAYPOINT
    CF043 TO WH019 REF: AIP AD 2.24. 23 NOV 18:37 2015 UNTIL
    PERM. CREATED: 23 NOV 18:56 2015

---------------------------------------------------------------------------